sensor_id;sensor_type;location;lat;lon;timestamp;pressure;altitude;pressure_sealevel;temperature;humidity
39141;BME280;24875;48.436;10.298;2024-03-23T00:53:45;95647.84;;;12.42;100.00
39141;BME280;24875;48.436;10.298;2024-03-23T00:56:12;95643.97;;;12.25;100.00
39141;BME280;24875;48.436;10.298;2024-03-23T00:58:37;95642.38;;;12.37;100.00
39141;BME280;24875;48.436;10.298;2024-03-23T01:01:04;95645.00;;;12.37;100.00
39141;BME280;24875;48.436;10.298;2024-03-23T01:03:29;95641.16;;;12.40;100.00
39141;BME280;24875;48.436;10.298;2024-03-23T01:05:59;95627.72;;;12.48;100.00
39141;BME280;24875;48.436;10.298;2024-03-23T01:08:24;95623.66;;;12.19;100.00
39141;BME280;24875;48.436;10.298;2024-03-23T01:10:56;95616.31;;;12.15;100.00
39141;BME280;24875;48.436;10.298;2024-03-23T01:13:21;95623.22;;;12.10;100.00
39141;BME280;24875;48.436;10.298;2024-03-23T01:15:49;95616.50;;;12.07;100.00
39141;BME280;24875;48.436;10.298;2024-03-23T01:18:14;95616.72;;;11.99;100.00
39141;BME280;24875;48.436;10.298;2024-03-23T01:20:41;95616.91;;;11.98;100.00
39141;BME280;24875;48.436;10.298;2024-03-23T01:23:06;95611.44;;;12.06;100.00
39141;BME280;24875;48.436;10.298;2024-03-23T01:25:33;95607.16;;;12.05;100.00
39141;BME280;24875;48.436;10.298;2024-03-23T01:28:00;95609.63;;;12.19;100.00
39141;BME280;24875;48.436;10.298;2024-03-23T01:30:26;95605.72;;;11.96;100.00
39141;BME280;24875;48.436;10.298;2024-03-23T01:32:52;95601.69;;;12.06;100.00
39141;BME280;24875;48.436;10.298;2024-03-23T01:35:19;95603.88;;;11.96;100.00
39141;BME280;24875;48.436;10.298;2024-03-23T01:37:44;95590.69;;;11.90;100.00
39141;BME280;24875;48.436;10.298;2024-03-23T01:40:12;95594.16;;;12.03;100.00
39141;BME280;24875;48.436;10.298;2024-03-23T01:42:38;95591.66;;;11.76;100.00
39141;BME280;24875;48.436;10.298;2024-03-23T01:45:08;95586.63;;;12.00;100.00
39141;BME280;24875;48.436;10.298;2024-03-23T01:47:34;95582.53;;;11.85;100.00
39141;BME280;24875;48.436;10.298;2024-03-23T01:50:00;95586.00;;;11.79;100.00
39141;BME280;24875;48.436;10.298;2024-03-23T01:52:26;95576.00;;;11.68;100.00
39141;BME280;24875;48.436;10.298;2024-03-23T01:54:53;95572.41;;;11.82;100.00
39141;BME280;24875;48.436;10.298;2024-03-23T01:57:19;95565.31;;;12.02;100.00
39141;BME280;24875;48.436;10.298;2024-03-23T01:59:46;95571.00;;;11.99;100.00
39141;BME280;24875;48.436;10.298;2024-03-23T02:02:13;95557.63;;;12.19;100.00
39141;BME280;24875;48.436;10.298;2024-03-23T02:04:42;95555.16;;;11.92;100.00
39141;BME280;24875;48.436;10.298;2024-03-23T02:07:08;95557.19;;;11.97;100.00
39141;BME280;24875;48.436;10.298;2024-03-23T02:09:34;95545.81;;;11.96;100.00
39141;BME280;24875;48.436;10.298;2024-03-23T02:12:01;95545.81;;;12.09;100.00
39141;BME280;24875;48.436;10.298;2024-03-23T02:14:28;95537.88;;;11.77;100.00
39141;BME280;24875;48.436;10.298;2024-03-23T02:16:54;95547.44;;;11.91;100.00
39141;BME280;24875;48.436;10.298;2024-03-23T02:19:21;95541.16;;;12.05;100.00
39141;BME280;24875;48.436;10.298;2024-03-23T02:21:47;95540.09;;;11.80;100.00
39141;BME280;24875;48.436;10.298;2024-03-23T02:24:15;95534.44;;;12.09;100.00
39141;BME280;24875;48.436;10.298;2024-03-23T02:26:40;95528.16;;;11.90;100.00
39141;BME280;24875;48.436;10.298;2024-03-23T02:29:07;95530.97;;;11.89;100.00
39141;BME280;24875;48.436;10.298;2024-03-23T02:31:34;95527.28;;;11.64;100.00
39141;BME280;24875;48.436;10.298;2024-03-23T02:34:01;95524.84;;;11.56;100.00
39141;BME280;24875;48.436;10.298;2024-03-23T02:36:26;95523.66;;;11.65;100.00
39141;BME280;24875;48.436;10.298;2024-03-23T02:38:53;95523.84;;;11.63;100.00
39141;BME280;24875;48.436;10.298;2024-03-23T02:41:19;95520.41;;;11.89;100.00
39141;BME280;24875;48.436;10.298;2024-03-23T02:43:49;95521.44;;;11.75;100.00
39141;BME280;24875;48.436;10.298;2024-03-23T02:46:14;95524.44;;;11.53;100.00
39141;BME280;24875;48.436;10.298;2024-03-23T02:48:41;95512.91;;;11.73;100.00
39141;BME280;24875;48.436;10.298;2024-03-23T02:51:06;95503.75;;;11.82;100.00
39141;BME280;24875;48.436;10.298;2024-03-23T02:53:33;95503.97;;;11.74;100.00
39141;BME280;24875;48.436;10.298;2024-03-23T02:55:58;95494.22;;;11.68;100.00
39141;BME280;24875;48.436;10.298;2024-03-23T02:58:26;95493.41;;;11.87;100.00
39141;BME280;24875;48.436;10.298;2024-03-23T03:00:52;95493.78;;;11.71;100.00
39141;BME280;24875;48.436;10.298;2024-03-23T03:03:18;95479.34;;;11.48;100.00
39141;BME280;24875;48.436;10.298;2024-03-23T03:05:44;95478.16;;;11.69;100.00
39141;BME280;24875;48.436;10.298;2024-03-23T03:08:10;95463.97;;;11.77;100.00
39141;BME280;24875;48.436;10.298;2024-03-23T03:10:36;95473.31;;;11.86;100.00
39141;BME280;24875;48.436;10.298;2024-03-23T03:13:03;95463.56;;;11.99;100.00
39141;BME280;24875;48.436;10.298;2024-03-23T03:15:30;95462.72;;;12.12;100.00
39141;BME280;24875;48.436;10.298;2024-03-23T03:17:56;95457.06;;;11.89;100.00
39141;BME280;24875;48.436;10.298;2024-03-23T03:20:22;95457.66;;;11.91;100.00
39141;BME280;24875;48.436;10.298;2024-03-23T03:22:49;95450.59;;;11.98;100.00
39141;BME280;24875;48.436;10.298;2024-03-23T03:25:15;95452.59;;;12.02;100.00
39141;BME280;24875;48.436;10.298;2024-03-23T03:27:41;95458.69;;;11.83;100.00
39141;BME280;24875;48.436;10.298;2024-03-23T03:30:07;95449.34;;;11.81;100.00
39141;BME280;24875;48.436;10.298;2024-03-23T03:32:35;95448.31;;;12.08;100.00
39141;BME280;24875;48.436;10.298;2024-03-23T03:35:01;95427.84;;;11.84;100.00
39141;BME280;24875;48.436;10.298;2024-03-23T03:37:28;95436.78;;;11.83;100.00
39141;BME280;24875;48.436;10.298;2024-03-23T03:39:53;95442.84;;;11.70;100.00
39141;BME280;24875;48.436;10.298;2024-03-23T03:42:20;95443.25;;;11.87;100.00
39141;BME280;24875;48.436;10.298;2024-03-23T03:44:45;95442.47;;;11.93;100.00
39141;BME280;24875;48.436;10.298;2024-03-23T03:47:12;95441.22;;;11.89;100.00
39141;BME280;24875;48.436;10.298;2024-03-23T03:49:38;95430.47;;;11.97;100.00
39141;BME280;24875;48.436;10.298;2024-03-23T03:52:05;95443.69;;;11.90;100.00
39141;BME280;24875;48.436;10.298;2024-03-23T03:54:33;95435.53;;;12.05;100.00
39141;BME280;24875;48.436;10.298;2024-03-23T03:56:59;95434.72;;;11.85;100.00
39141;BME280;24875;48.436;10.298;2024-03-23T03:59:26;95425.38;;;11.82;100.00
39141;BME280;24875;48.436;10.298;2024-03-23T04:01:52;95430.06;;;11.80;100.00
39141;BME280;24875;48.436;10.298;2024-03-23T04:04:18;95415.66;;;11.83;100.00
39141;BME280;24875;48.436;10.298;2024-03-23T04:06:47;95412.56;;;11.99;100.00
39141;BME280;24875;48.436;10.298;2024-03-23T04:09:12;95416.25;;;11.72;100.00
39141;BME280;24875;48.436;10.298;2024-03-23T04:11:40;95409.97;;;11.73;100.00
39141;BME280;24875;48.436;10.298;2024-03-23T04:14:05;95399.81;;;11.70;100.00
39141;BME280;24875;48.436;10.298;2024-03-23T04:16:34;95402.00;;;11.99;100.00
39141;BME280;24875;48.436;10.298;2024-03-23T04:19:00;95409.34;;;11.71;100.00
39141;BME280;24875;48.436;10.298;2024-03-23T04:21:26;95405.50;;;11.86;100.00
39141;BME280;24875;48.436;10.298;2024-03-23T04:23:53;95394.94;;;11.99;100.00
39141;BME280;24875;48.436;10.298;2024-03-23T04:26:20;95390.25;;;11.95;100.00
39141;BME280;24875;48.436;10.298;2024-03-23T04:28:45;95392.13;;;11.75;100.00
39141;BME280;24875;48.436;10.298;2024-03-23T04:31:12;95384.38;;;11.54;100.00
39141;BME280;24875;48.436;10.298;2024-03-23T04:33:37;95383.59;;;11.66;100.00
39141;BME280;24875;48.436;10.298;2024-03-23T04:36:04;95386.00;;;11.68;100.00
39141;BME280;24875;48.436;10.298;2024-03-23T04:38:30;95374.66;;;11.74;100.00
39141;BME280;24875;48.436;10.298;2024-03-23T04:40:59;95365.31;;;11.71;100.00
39141;BME280;24875;48.436;10.298;2024-03-23T04:43:25;95376.47;;;11.67;100.00
39141;BME280;24875;48.436;10.298;2024-03-23T04:45:52;95365.34;;;11.52;100.00
39141;BME280;24875;48.436;10.298;2024-03-23T04:48:19;95364.88;;;11.42;100.00
39141;BME280;24875;48.436;10.298;2024-03-23T04:50:46;95361.41;;;11.35;100.00
39141;BME280;24875;48.436;10.298;2024-03-23T04:53:13;95358.19;;;11.14;100.00
39141;BME280;24875;48.436;10.298;2024-03-23T04:55:39;95359.19;;;11.06;100.00
39141;BME280;24875;48.436;10.298;2024-03-23T04:58:07;95359.00;;;11.27;100.00
39141;BME280;24875;48.436;10.298;2024-03-23T05:00:32;95347.84;;;11.19;100.00
39141;BME280;24875;48.436;10.298;2024-03-23T05:02:59;95339.09;;;11.25;100.00
39141;BME280;24875;48.436;10.298;2024-03-23T05:05:25;95324.72;;;11.34;100.00
39141;BME280;24875;48.436;10.298;2024-03-23T05:07:51;95320.66;;;11.31;100.00
39141;BME280;24875;48.436;10.298;2024-03-23T05:10:18;95307.88;;;11.15;100.00
39141;BME280;24875;48.436;10.298;2024-03-23T05:12:43;95305.63;;;11.12;100.00
39141;BME280;24875;48.436;10.298;2024-03-23T05:15:12;95290.63;;;11.58;100.00
39141;BME280;24875;48.436;10.298;2024-03-23T05:17:38;95284.53;;;11.57;100.00
39141;BME280;24875;48.436;10.298;2024-03-23T05:20:05;95282.50;;;11.66;100.00
39141;BME280;24875;48.436;10.298;2024-03-23T05:22:34;95279.22;;;11.70;100.00
39141;BME280;24875;48.436;10.298;2024-03-23T05:25:01;95279.66;;;11.48;100.00
39141;BME280;24875;48.436;10.298;2024-03-23T05:27:29;95275.78;;;11.44;100.00
39141;BME280;24875;48.436;10.298;2024-03-23T05:29:56;95270.72;;;11.62;100.00
39141;BME280;24875;48.436;10.298;2024-03-23T05:32:23;95256.81;;;11.92;100.00
39141;BME280;24875;48.436;10.298;2024-03-23T05:34:50;95269.91;;;11.68;100.00
39141;BME280;24875;48.436;10.298;2024-03-23T05:37:21;95254.84;;;11.81;100.00
39141;BME280;24875;48.436;10.298;2024-03-23T05:39:47;95250.75;;;11.92;100.00
39141;BME280;24875;48.436;10.298;2024-03-23T05:42:15;95252.13;;;12.07;100.00
39141;BME280;24875;48.436;10.298;2024-03-23T05:44:43;95243.22;;;12.39;100.00
39141;BME280;24875;48.436;10.298;2024-03-23T05:47:08;95234.19;;;12.22;100.00
39141;BME280;24875;48.436;10.298;2024-03-23T05:49:37;95240.75;;;12.44;100.00
39141;BME280;24875;48.436;10.298;2024-03-23T05:52:02;95235.50;;;12.37;100.00
39141;BME280;24875;48.436;10.298;2024-03-23T05:54:29;95234.25;;;12.46;100.00
39141;BME280;24875;48.436;10.298;2024-03-23T05:56:55;95230.22;;;12.37;100.00
39141;BME280;24875;48.436;10.298;2024-03-23T05:59:22;95231.38;;;12.48;100.00
39141;BME280;24875;48.436;10.298;2024-03-23T06:01:48;95234.06;;;12.72;100.00
39141;BME280;24875;48.436;10.298;2024-03-23T06:04:14;95233.63;;;12.75;100.00
39141;BME280;24875;48.436;10.298;2024-03-23T06:06:42;95233.97;;;12.85;100.00
39141;BME280;24875;48.436;10.298;2024-03-23T06:09:07;95232.78;;;12.81;100.00
39141;BME280;24875;48.436;10.298;2024-03-23T06:11:34;95238.78;;;12.94;100.00
39141;BME280;24875;48.436;10.298;2024-03-23T06:13:59;95228.50;;;13.11;100.00
39141;BME280;24875;48.436;10.298;2024-03-23T06:16:26;95215.38;;;13.22;100.00
39141;BME280;24875;48.436;10.298;2024-03-23T06:18:53;95226.66;;;13.36;100.00
39141;BME280;24875;48.436;10.298;2024-03-23T06:21:20;95208.66;;;13.20;100.00
39141;BME280;24875;48.436;10.298;2024-03-23T06:23:47;95211.09;;;13.63;100.00
39141;BME280;24875;48.436;10.298;2024-03-23T06:26:16;95215.06;;;13.54;100.00
39141;BME280;24875;48.436;10.298;2024-03-23T06:28:42;95217.50;;;13.14;100.00
39141;BME280;24875;48.436;10.298;2024-03-23T06:31:09;95221.44;;;13.47;100.00
39141;BME280;24875;48.436;10.298;2024-03-23T06:33:34;95241.69;;;13.35;100.00
39141;BME280;24875;48.436;10.298;2024-03-23T06:36:01;95248.63;;;13.36;100.00
39141;BME280;24875;48.436;10.298;2024-03-23T06:38:27;95246.34;;;13.39;100.00
39141;BME280;24875;48.436;10.298;2024-03-23T06:40:55;95270.09;;;13.46;100.00
39141;BME280;24875;48.436;10.298;2024-03-23T06:43:20;95324.59;;;13.05;100.00
39141;BME280;24875;48.436;10.298;2024-03-23T06:45:52;95373.47;;;12.96;100.00
39141;BME280;24875;48.436;10.298;2024-03-23T06:48:18;95389.25;;;11.76;100.00
39141;BME280;24875;48.436;10.298;2024-03-23T06:50:45;95401.06;;;11.55;100.00
39141;BME280;24875;48.436;10.298;2024-03-23T06:53:11;95402.03;;;11.41;100.00
39141;BME280;24875;48.436;10.298;2024-03-23T06:55:38;95397.50;;;11.02;100.00
39141;BME280;24875;48.436;10.298;2024-03-23T06:58:05;95404.03;;;11.32;100.00
39141;BME280;24875;48.436;10.298;2024-03-23T07:00:31;95414.13;;;11.09;100.00
39141;BME280;24875;48.436;10.298;2024-03-23T07:02:57;95424.84;;;10.95;100.00
39141;BME280;24875;48.436;10.298;2024-03-23T07:05:24;95411.88;;;10.87;100.00
39141;BME280;24875;48.436;10.298;2024-03-23T07:07:50;95412.44;;;10.83;100.00
39141;BME280;24875;48.436;10.298;2024-03-23T07:10:16;95422.66;;;10.98;100.00
39141;BME280;24875;48.436;10.298;2024-03-23T07:12:43;95409.50;;;11.11;100.00
39141;BME280;24875;48.436;10.298;2024-03-23T07:15:10;95412.75;;;11.26;100.00
39141;BME280;24875;48.436;10.298;2024-03-23T07:17:36;95409.88;;;11.08;100.00
39141;BME280;24875;48.436;10.298;2024-03-23T07:20:03;95406.03;;;11.17;100.00
39141;BME280;24875;48.436;10.298;2024-03-23T07:22:29;95402.59;;;11.23;100.00
39141;BME280;24875;48.436;10.298;2024-03-23T07:24:56;95406.25;;;11.22;100.00
39141;BME280;24875;48.436;10.298;2024-03-23T07:27:21;95415.78;;;11.23;100.00
39141;BME280;24875;48.436;10.298;2024-03-23T07:29:49;95411.94;;;11.32;100.00
39141;BME280;24875;48.436;10.298;2024-03-23T07:32:15;95422.97;;;11.55;100.00
39141;BME280;24875;48.436;10.298;2024-03-23T07:34:42;95430.63;;;11.37;100.00
39141;BME280;24875;48.436;10.298;2024-03-23T07:37:09;95446.50;;;11.50;100.00
39141;BME280;24875;48.436;10.298;2024-03-23T07:39:36;95450.72;;;11.45;100.00
39141;BME280;24875;48.436;10.298;2024-03-23T07:42:02;95454.94;;;11.26;100.00
39141;BME280;24875;48.436;10.298;2024-03-23T07:44:29;95453.28;;;11.12;100.00
39141;BME280;24875;48.436;10.298;2024-03-23T07:46:54;95469.88;;;10.93;100.00
39141;BME280;24875;48.436;10.298;2024-03-23T07:49:22;95477.22;;;11.17;100.00
39141;BME280;24875;48.436;10.298;2024-03-23T07:51:47;95470.25;;;10.91;100.00
39141;BME280;24875;48.436;10.298;2024-03-23T07:54:14;95476.41;;;11.10;100.00
39141;BME280;24875;48.436;10.298;2024-03-23T07:56:40;95478.63;;;11.13;100.00
39141;BME280;24875;48.436;10.298;2024-03-23T07:59:06;95480.28;;;11.14;100.00
39141;BME280;24875;48.436;10.298;2024-03-23T08:01:32;95482.69;;;11.09;100.00
39141;BME280;24875;48.436;10.298;2024-03-23T08:03:59;95470.88;;;10.93;100.00
39141;BME280;24875;48.436;10.298;2024-03-23T08:06:26;95483.94;;;11.20;100.00
39141;BME280;24875;48.436;10.298;2024-03-23T08:08:55;95493.13;;;11.37;100.00
39141;BME280;24875;48.436;10.298;2024-03-23T08:11:25;95512.13;;;11.13;100.00
39141;BME280;24875;48.436;10.298;2024-03-23T08:13:52;95512.72;;;11.21;100.00
39141;BME280;24875;48.436;10.298;2024-03-23T08:16:17;95515.38;;;11.21;100.00
39141;BME280;24875;48.436;10.298;2024-03-23T08:18:44;95521.97;;;10.92;100.00
39141;BME280;24875;48.436;10.298;2024-03-23T08:21:09;95521.34;;;10.90;100.00
39141;BME280;24875;48.436;10.298;2024-03-23T08:23:38;95536.41;;;11.08;100.00
39141;BME280;24875;48.436;10.298;2024-03-23T08:26:05;95535.59;;;11.01;100.00
39141;BME280;24875;48.436;10.298;2024-03-23T08:28:32;95559.41;;;10.81;100.00
39141;BME280;24875;48.436;10.298;2024-03-23T08:31:01;95576.97;;;11.01;100.00
39141;BME280;24875;48.436;10.298;2024-03-23T08:33:28;95560.25;;;10.88;100.00
39141;BME280;24875;48.436;10.298;2024-03-23T08:35:54;95562.59;;;10.70;100.00
39141;BME280;24875;48.436;10.298;2024-03-23T08:38:21;95557.81;;;10.86;100.00
39141;BME280;24875;48.436;10.298;2024-03-23T08:40:56;95568.19;;;11.34;100.00
39141;BME280;24875;48.436;10.298;2024-03-23T08:43:23;95570.63;;;10.95;100.00
39141;BME280;24875;48.436;10.298;2024-03-23T08:45:48;95567.22;;;11.01;100.00
39141;BME280;24875;48.436;10.298;2024-03-23T08:48:15;95579.72;;;11.27;100.00
39141;BME280;24875;48.436;10.298;2024-03-23T08:50:41;95576.19;;;11.13;100.00
39141;BME280;24875;48.436;10.298;2024-03-23T08:53:07;95579.22;;;11.10;100.00
39141;BME280;24875;48.436;10.298;2024-03-23T08:55:33;95581.91;;;11.17;100.00
39141;BME280;24875;48.436;10.298;2024-03-23T08:58:02;95589.66;;;11.31;100.00
39141;BME280;24875;48.436;10.298;2024-03-23T09:00:27;95579.50;;;11.28;100.00
39141;BME280;24875;48.436;10.298;2024-03-23T09:02:54;95584.00;;;11.34;100.00
39141;BME280;24875;48.436;10.298;2024-03-23T09:05:20;95593.81;;;11.53;100.00
39141;BME280;24875;48.436;10.298;2024-03-23T09:07:47;95627.13;;;11.54;100.00
39141;BME280;24875;48.436;10.298;2024-03-23T09:10:12;95603.38;;;11.54;100.00
39141;BME280;24875;48.436;10.298;2024-03-23T09:12:39;95616.31;;;11.49;100.00
39141;BME280;24875;48.436;10.298;2024-03-23T09:15:06;95613.00;;;11.87;100.00
39141;BME280;24875;48.436;10.298;2024-03-23T09:17:33;95624.75;;;11.72;100.00
39141;BME280;24875;48.436;10.298;2024-03-23T09:19:59;95624.44;;;12.01;100.00
39141;BME280;24875;48.436;10.298;2024-03-23T09:22:25;95642.28;;;11.99;100.00
39141;BME280;24875;48.436;10.298;2024-03-23T09:24:51;95654.97;;;11.63;100.00
39141;BME280;24875;48.436;10.298;2024-03-23T09:27:17;95652.31;;;11.63;100.00
39141;BME280;24875;48.436;10.298;2024-03-23T09:29:43;95646.56;;;12.00;100.00
39141;BME280;24875;48.436;10.298;2024-03-23T09:32:11;95659.31;;;11.90;100.00
39141;BME280;24875;48.436;10.298;2024-03-23T09:34:37;95666.94;;;11.25;100.00
39141;BME280;24875;48.436;10.298;2024-03-23T09:37:04;95676.75;;;11.44;100.00
39141;BME280;24875;48.436;10.298;2024-03-23T09:39:29;95662.28;;;11.27;100.00
39141;BME280;24875;48.436;10.298;2024-03-23T09:41:57;95680.50;;;11.22;100.00
39141;BME280;24875;48.436;10.298;2024-03-23T09:44:24;95668.91;;;11.17;100.00
39141;BME280;24875;48.436;10.298;2024-03-23T09:46:51;95678.78;;;11.08;100.00
39141;BME280;24875;48.436;10.298;2024-03-23T09:49:19;95671.81;;;11.28;100.00
39141;BME280;24875;48.436;10.298;2024-03-23T09:51:46;95673.81;;;11.26;100.00
39141;BME280;24875;48.436;10.298;2024-03-23T09:54:12;95696.28;;;11.16;99.78
39141;BME280;24875;48.436;10.298;2024-03-23T09:56:38;95694.28;;;10.91;96.82
39141;BME280;24875;48.436;10.298;2024-03-23T09:59:04;95687.72;;;11.07;98.20
39141;BME280;24875;48.436;10.298;2024-03-23T10:01:31;95695.72;;;11.20;95.13
39141;BME280;24875;48.436;10.298;2024-03-23T10:03:57;95697.44;;;11.07;95.07
39141;BME280;24875;48.436;10.298;2024-03-23T10:06:25;95694.84;;;11.47;97.00
39141;BME280;24875;48.436;10.298;2024-03-23T10:08:51;95689.22;;;11.16;96.16
39141;BME280;24875;48.436;10.298;2024-03-23T10:11:20;95684.13;;;11.21;91.34
39141;BME280;24875;48.436;10.298;2024-03-23T10:13:46;95651.09;;;11.59;95.37
39141;BME280;24875;48.436;10.298;2024-03-23T10:16:21;95660.38;;;11.95;97.10
39141;BME280;24875;48.436;10.298;2024-03-23T10:18:47;95650.50;;;11.23;99.28
39141;BME280;24875;48.436;10.298;2024-03-23T10:21:14;95653.56;;;10.93;100.00
39141;BME280;24875;48.436;10.298;2024-03-23T10:23:42;95691.66;;;10.63;100.00
39141;BME280;24875;48.436;10.298;2024-03-23T10:26:13;95695.88;;;10.85;100.00
39141;BME280;24875;48.436;10.298;2024-03-23T10:28:51;95690.44;;;10.93;100.00
39141;BME280;24875;48.436;10.298;2024-03-23T10:31:18;95702.13;;;10.84;100.00
39141;BME280;24875;48.436;10.298;2024-03-23T10:33:44;95716.28;;;10.77;100.00
39141;BME280;24875;48.436;10.298;2024-03-23T10:36:12;95724.75;;;10.99;99.53
39141;BME280;24875;48.436;10.298;2024-03-23T10:38:39;95727.34;;;10.93;100.00
39141;BME280;24875;48.436;10.298;2024-03-23T10:41:08;95722.31;;;10.71;100.00
39141;BME280;24875;48.436;10.298;2024-03-23T10:43:36;95731.13;;;10.57;99.91
39141;BME280;24875;48.436;10.298;2024-03-23T10:46:01;95761.75;;;10.43;99.93
39141;BME280;24875;48.436;10.298;2024-03-23T10:48:28;95766.38;;;10.21;100.00
39141;BME280;24875;48.436;10.298;2024-03-23T10:50:53;95785.72;;;10.28;99.08
39141;BME280;24875;48.436;10.298;2024-03-23T10:53:21;95796.34;;;10.55;99.73
39141;BME280;24875;48.436;10.298;2024-03-23T10:55:50;95798.28;;;10.46;99.61
39141;BME280;24875;48.436;10.298;2024-03-23T10:58:23;95824.63;;;10.46;93.30
39141;BME280;24875;48.436;10.298;2024-03-23T11:00:49;95776.69;;;10.36;92.44
39141;BME280;24875;48.436;10.298;2024-03-23T11:03:33;95758.97;;;10.93;93.38
39141;BME280;24875;48.436;10.298;2024-03-23T11:05:59;95743.22;;;10.99;91.05
39141;BME280;24875;48.436;10.298;2024-03-23T11:08:33;95737.81;;;11.35;91.03
39141;BME280;24875;48.436;10.298;2024-03-23T11:11:11;95760.75;;;11.34;90.26
39141;BME280;24875;48.436;10.298;2024-03-23T11:13:40;95783.91;;;10.91;91.58
39141;BME280;24875;48.436;10.298;2024-03-23T11:16:13;95781.81;;;11.07;88.83
39141;BME280;24875;48.436;10.298;2024-03-23T11:18:40;95782.34;;;11.23;86.02
39141;BME280;24875;48.436;10.298;2024-03-23T11:21:06;95766.03;;;11.13;79.86
39141;BME280;24875;48.436;10.298;2024-03-23T11:23:33;95772.81;;;11.22;78.48
39141;BME280;24875;48.436;10.298;2024-03-23T11:25:58;95779.00;;;11.36;76.40
39141;BME280;24875;48.436;10.298;2024-03-23T11:28:26;95788.03;;;11.20;77.70
39141;BME280;24875;48.436;10.298;2024-03-23T11:30:53;95785.38;;;11.20;79.67
39141;BME280;24875;48.436;10.298;2024-03-23T11:33:19;95787.94;;;10.87;76.55
39141;BME280;24875;48.436;10.298;2024-03-23T11:35:45;95782.09;;;11.18;74.53
39141;BME280;24875;48.436;10.298;2024-03-23T11:38:12;95785.06;;;11.57;71.48
39141;BME280;24875;48.436;10.298;2024-03-23T11:40:39;95792.94;;;11.30;66.11
39141;BME280;24875;48.436;10.298;2024-03-23T11:43:07;95770.50;;;11.40;65.56
39141;BME280;24875;48.436;10.298;2024-03-23T11:45:34;95749.47;;;11.19;64.36
39141;BME280;24875;48.436;10.298;2024-03-23T11:48:04;95760.31;;;11.64;63.29
39141;BME280;24875;48.436;10.298;2024-03-23T11:50:30;95781.03;;;11.61;60.20
39141;BME280;24875;48.436;10.298;2024-03-23T11:53:07;95749.63;;;12.25;59.73
39141;BME280;24875;48.436;10.298;2024-03-23T11:55:39;95739.00;;;12.06;60.68
39141;BME280;24875;48.436;10.298;2024-03-23T11:58:06;95727.72;;;11.78;59.45
39141;BME280;24875;48.436;10.298;2024-03-23T12:00:31;95725.22;;;11.64;60.36
39141;BME280;24875;48.436;10.298;2024-03-23T12:03:00;95744.56;;;11.44;60.88
39141;BME280;24875;48.436;10.298;2024-03-23T12:05:27;95711.97;;;11.51;62.09
39141;BME280;24875;48.436;10.298;2024-03-23T12:07:54;95720.66;;;11.18;61.62
39141;BME280;24875;48.436;10.298;2024-03-23T12:10:20;95712.19;;;11.29;62.11
39141;BME280;24875;48.436;10.298;2024-03-23T12:12:59;95709.84;;;11.47;61.74
39141;BME280;24875;48.436;10.298;2024-03-23T12:15:24;95719.38;;;11.41;64.08
39141;BME280;24875;48.436;10.298;2024-03-23T12:17:51;95727.25;;;11.35;65.05
39141;BME280;24875;48.436;10.298;2024-03-23T12:20:16;95779.53;;;10.35;70.16
39141;BME280;24875;48.436;10.298;2024-03-23T12:22:44;95777.75;;;9.92;89.22
39141;BME280;24875;48.436;10.298;2024-03-23T12:25:11;95797.31;;;9.55;95.10
39141;BME280;24875;48.436;10.298;2024-03-23T12:27:38;95797.28;;;9.26;100.00
39141;BME280;24875;48.436;10.298;2024-03-23T12:30:04;95807.19;;;9.53;100.00
39141;BME280;24875;48.436;10.298;2024-03-23T12:32:31;95796.03;;;9.36;100.00
39141;BME280;24875;48.436;10.298;2024-03-23T12:34:57;95807.16;;;9.24;100.00
39141;BME280;24875;48.436;10.298;2024-03-23T12:37:23;95810.03;;;9.00;100.00
39141;BME280;24875;48.436;10.298;2024-03-23T12:39:50;95815.63;;;9.48;100.00
39141;BME280;24875;48.436;10.298;2024-03-23T12:42:17;95807.72;;;9.34;100.00
39141;BME280;24875;48.436;10.298;2024-03-23T12:44:42;95817.63;;;9.75;96.99
39141;BME280;24875;48.436;10.298;2024-03-23T12:47:09;95807.28;;;9.88;94.98
39141;BME280;24875;48.436;10.298;2024-03-23T12:49:36;95793.31;;;10.37;93.80
39141;BME280;24875;48.436;10.298;2024-03-23T12:52:05;95774.00;;;11.47;88.54
39141;BME280;24875;48.436;10.298;2024-03-23T12:54:33;95783.31;;;11.43;82.54
39141;BME280;24875;48.436;10.298;2024-03-23T12:57:01;95768.38;;;11.84;75.25
39141;BME280;24875;48.436;10.298;2024-03-23T12:59:28;95782.09;;;11.18;70.88
39141;BME280;24875;48.436;10.298;2024-03-23T13:01:54;95773.84;;;11.00;71.01
39141;BME280;24875;48.436;10.298;2024-03-23T13:04:20;95769.13;;;10.90;71.54
39141;BME280;24875;48.436;10.298;2024-03-23T13:06:47;95770.81;;;11.03;69.34
39141;BME280;24875;48.436;10.298;2024-03-23T13:09:12;95765.84;;;11.42;70.36
39141;BME280;24875;48.436;10.298;2024-03-23T13:11:39;95765.53;;;11.24;63.34
39141;BME280;24875;48.436;10.298;2024-03-23T13:14:06;95767.19;;;11.04;63.36
39141;BME280;24875;48.436;10.298;2024-03-23T13:16:32;95774.81;;;10.93;63.52
39141;BME280;24875;48.436;10.298;2024-03-23T13:18:58;95772.75;;;10.47;63.39
39141;BME280;24875;48.436;10.298;2024-03-23T13:21:26;95776.41;;;10.67;64.41
39141;BME280;24875;48.436;10.298;2024-03-23T13:23:52;95774.69;;;11.01;66.12
39141;BME280;24875;48.436;10.298;2024-03-23T13:26:18;95792.34;;;10.80;65.61
39141;BME280;24875;48.436;10.298;2024-03-23T13:28:44;95795.19;;;10.43;66.04
39141;BME280;24875;48.436;10.298;2024-03-23T13:31:28;95780.56;;;11.03;68.15
39141;BME280;24875;48.436;10.298;2024-03-23T13:33:53;95769.47;;;11.07;67.46